sensor_id;sensor_type;location;lat;lon;timestamp;pressure;altitude;pressure_sealevel;temperature;humidity
43741;BME280;29352;48.708;9.290;2023-08-31T00:00:29;97272.16;;;12.33;69.19
43741;BME280;29352;48.708;9.290;2023-08-31T00:02:57;97283.66;;;12.33;69.25
43741;BME280;29352;48.708;9.290;2023-08-31T00:05:22;97271.34;;;12.49;69.63
43741;BME280;29352;48.708;9.290;2023-08-31T00:07:50;97287.56;;;12.42;69.26
43741;BME280;29352;48.708;9.290;2023-08-31T00:10:16;97284.44;;;12.17;70.20
43741;BME280;29352;48.708;9.290;2023-08-31T00:12:42;97279.38;;;12.66;69.29
43741;BME280;29352;48.708;9.290;2023-08-31T00:15:09;97285.63;;;12.38;69.32
43741;BME280;29352;48.708;9.290;2023-08-31T00:17:35;97287.63;;;12.30;69.95
43741;BME280;29352;48.708;9.290;2023-08-31T00:20:00;97282.53;;;12.46;69.35
43741;BME280;29352;48.708;9.290;2023-08-31T00:22:27;97277.34;;;12.39;69.38
43741;BME280;29352;48.708;9.290;2023-08-31T00:24:53;97277.06;;;12.58;69.19
43741;BME280;29352;48.708;9.290;2023-08-31T00:27:19;97280.66;;;12.46;69.43
43741;BME280;29352;48.708;9.290;2023-08-31T00:29:46;97279.28;;;12.61;69.05
43741;BME280;29352;48.708;9.290;2023-08-31T00:32:15;97277.78;;;12.87;68.83
43741;BME280;29352;48.708;9.290;2023-08-31T00:34:42;97285.28;;;12.51;69.00
43741;BME280;29352;48.708;9.290;2023-08-31T00:37:07;97288.44;;;12.65;68.69
43741;BME280;29352;48.708;9.290;2023-08-31T00:39:33;97297.47;;;12.59;69.01
43741;BME280;29352;48.708;9.290;2023-08-31T00:41:59;97299.13;;;12.48;68.94
43741;BME280;29352;48.708;9.290;2023-08-31T00:44:25;97300.19;;;12.47;69.27
43741;BME280;29352;48.708;9.290;2023-08-31T00:46:52;97300.19;;;12.47;68.92
43741;BME280;29352;48.708;9.290;2023-08-31T00:49:18;97303.78;;;12.69;68.66
43741;BME280;29352;48.708;9.290;2023-08-31T00:51:45;97299.22;;;12.70;68.45
43741;BME280;29352;48.708;9.290;2023-08-31T00:54:16;97305.38;;;12.87;68.15
43741;BME280;29352;48.708;9.290;2023-08-31T00:56:42;97298.16;;;12.54;68.37
43741;BME280;29352;48.708;9.290;2023-08-31T00:59:08;97301.25;;;12.79;67.88
43741;BME280;29352;48.708;9.290;2023-08-31T01:01:41;97304.44;;;12.14;68.90
43741;BME280;29352;48.708;9.290;2023-08-31T01:04:26;97314.22;;;12.71;67.73
43741;BME280;29352;48.708;9.290;2023-08-31T01:10:39;97299.78;;;12.21;68.27
43741;BME280;29352;48.708;9.290;2023-08-31T01:13:03;97304.34;;;12.38;67.99
43741;BME280;29352;48.708;9.290;2023-08-31T01:15:41;97308.16;;;11.96;68.91
43741;BME280;29352;48.708;9.290;2023-08-31T01:18:16;97291.53;;;11.66;69.27
43741;BME280;29352;48.708;9.290;2023-08-31T01:20:52;97295.06;;;11.83;68.27
43741;BME280;29352;48.708;9.290;2023-08-31T01:23:31;97293.22;;;11.43;69.50
43741;BME280;29352;48.708;9.290;2023-08-31T01:26:15;97295.28;;;11.53;69.08
43741;BME280;29352;48.708;9.290;2023-08-31T01:28:40;97297.41;;;11.79;68.39
43741;BME280;29352;48.708;9.290;2023-08-31T01:31:06;97304.44;;;11.85;67.91
43741;BME280;29352;48.708;9.290;2023-08-31T01:33:31;97310.25;;;11.54;68.89
43741;BME280;29352;48.708;9.290;2023-08-31T01:36:00;97310.88;;;11.32;69.25
43741;BME280;29352;48.708;9.290;2023-08-31T01:38:36;97313.31;;;11.46;69.36
43741;BME280;29352;48.708;9.290;2023-08-31T01:41:10;97315.25;;;12.19;67.28
43741;BME280;29352;48.708;9.290;2023-08-31T01:43:40;97315.72;;;11.88;67.73
43741;BME280;29352;48.708;9.290;2023-08-31T01:46:08;97323.00;;;12.04;67.17
43741;BME280;29352;48.708;9.290;2023-08-31T01:48:39;97327.00;;;11.49;68.44
43741;BME280;29352;48.708;9.290;2023-08-31T01:51:09;97322.66;;;11.72;67.39
43741;BME280;29352;48.708;9.290;2023-08-31T01:53:35;97333.84;;;11.57;67.53
43741;BME280;29352;48.708;9.290;2023-08-31T01:56:01;97327.41;;;11.70;67.63
43741;BME280;29352;48.708;9.290;2023-08-31T01:58:27;97327.63;;;11.80;67.20
43741;BME280;29352;48.708;9.290;2023-08-31T02:00:52;97342.78;;;11.63;68.28
43741;BME280;29352;48.708;9.290;2023-08-31T02:03:18;97335.31;;;11.65;67.90
43741;BME280;29352;48.708;9.290;2023-08-31T02:05:43;97316.25;;;11.73;67.92
43741;BME280;29352;48.708;9.290;2023-08-31T02:08:09;97321.34;;;12.03;67.43
43741;BME280;29352;48.708;9.290;2023-08-31T02:10:34;97332.69;;;11.53;68.07
43741;BME280;29352;48.708;9.290;2023-08-31T02:13:00;97323.66;;;11.82;67.83
43741;BME280;29352;48.708;9.290;2023-08-31T02:15:25;97323.09;;;11.80;67.47
43741;BME280;29352;48.708;9.290;2023-08-31T02:17:51;97325.75;;;11.52;68.36
43741;BME280;29352;48.708;9.290;2023-08-31T02:20:16;97326.41;;;11.59;68.45
43741;BME280;29352;48.708;9.290;2023-08-31T02:22:41;97341.31;;;11.31;69.32
43741;BME280;29352;48.708;9.290;2023-08-31T02:25:07;97338.16;;;11.46;68.91
43741;BME280;29352;48.708;9.290;2023-08-31T02:27:33;97339.66;;;11.54;68.88
43741;BME280;29352;48.708;9.290;2023-08-31T02:29:58;97338.38;;;11.33;69.06
43741;BME280;29352;48.708;9.290;2023-08-31T02:32:24;97339.44;;;11.44;69.16
43741;BME280;29352;48.708;9.290;2023-08-31T02:34:50;97342.59;;;11.17;69.64
43741;BME280;29352;48.708;9.290;2023-08-31T02:37:15;97339.34;;;11.39;69.26
43741;BME280;29352;48.708;9.290;2023-08-31T02:39:41;97340.72;;;11.29;69.38
43741;BME280;29352;48.708;9.290;2023-08-31T02:42:06;97344.44;;;11.28;69.74
43741;BME280;29352;48.708;9.290;2023-08-31T02:44:33;97342.63;;;11.41;68.97
43741;BME280;29352;48.708;9.290;2023-08-31T02:46:58;97338.28;;;11.40;69.09
43741;BME280;29352;48.708;9.290;2023-08-31T02:49:23;97341.91;;;11.45;69.41
43741;BME280;29352;48.708;9.290;2023-08-31T02:51:49;97345.50;;;11.04;70.21
43741;BME280;29352;48.708;9.290;2023-08-31T02:54:15;97350.16;;;11.20;69.95
43741;BME280;29352;48.708;9.290;2023-08-31T02:56:41;97345.03;;;11.30;69.86
43741;BME280;29352;48.708;9.290;2023-08-31T02:59:06;97351.78;;;10.98;70.33
43741;BME280;29352;48.708;9.290;2023-08-31T03:01:32;97360.03;;;10.96;70.23
43741;BME280;29352;48.708;9.290;2023-08-31T03:03:57;97358.63;;;10.94;70.36
43741;BME280;29352;48.708;9.290;2023-08-31T03:06:22;97347.47;;;11.32;69.55
43741;BME280;29352;48.708;9.290;2023-08-31T03:08:48;97361.78;;;11.14;69.40
43741;BME280;29352;48.708;9.290;2023-08-31T03:11:13;97356.66;;;11.01;69.89
43741;BME280;29352;48.708;9.290;2023-08-31T03:13:39;97362.34;;;10.93;70.34
43741;BME280;29352;48.708;9.290;2023-08-31T03:16:06;97367.00;;;11.21;69.58
43741;BME280;29352;48.708;9.290;2023-08-31T03:18:31;97366.03;;;10.92;69.94
43741;BME280;29352;48.708;9.290;2023-08-31T03:20:56;97366.28;;;11.02;69.67
43741;BME280;29352;48.708;9.290;2023-08-31T03:23:22;97367.69;;;11.04;69.69
43741;BME280;29352;48.708;9.290;2023-08-31T03:25:47;97365.16;;;11.09;69.77
43741;BME280;29352;48.708;9.290;2023-08-31T03:28:13;97367.00;;;10.85;69.49
43741;BME280;29352;48.708;9.290;2023-08-31T03:30:38;97363.84;;;10.88;69.81
43741;BME280;29352;48.708;9.290;2023-08-31T03:33:04;97362.34;;;11.40;68.80
43741;BME280;29352;48.708;9.290;2023-08-31T03:35:32;97366.66;;;11.17;68.89
43741;BME280;29352;48.708;9.290;2023-08-31T03:37:58;97374.75;;;11.22;68.51
43741;BME280;29352;48.708;9.290;2023-08-31T03:40:23;97375.44;;;11.29;68.48
43741;BME280;29352;48.708;9.290;2023-08-31T03:42:52;97372.00;;;11.17;68.76
43741;BME280;29352;48.708;9.290;2023-08-31T03:45:19;97366.41;;;11.42;68.28
43741;BME280;29352;48.708;9.290;2023-08-31T03:47:45;97372.13;;;11.34;67.91
43741;BME280;29352;48.708;9.290;2023-08-31T03:50:10;97374.72;;;11.57;67.66
43741;BME280;29352;48.708;9.290;2023-08-31T03:52:36;97376.75;;;11.39;68.22
43741;BME280;29352;48.708;9.290;2023-08-31T03:55:01;97386.13;;;11.29;69.00
43741;BME280;29352;48.708;9.290;2023-08-31T03:57:27;97387.06;;;11.11;69.24
43741;BME280;29352;48.708;9.290;2023-08-31T03:59:52;97384.75;;;10.50;70.76
43741;BME280;29352;48.708;9.290;2023-08-31T04:02:17;97395.19;;;11.28;69.00
43741;BME280;29352;48.708;9.290;2023-08-31T04:04:43;97403.56;;;11.20;69.01
43741;BME280;29352;48.708;9.290;2023-08-31T04:07:08;97401.69;;;10.85;70.35
43741;BME280;29352;48.708;9.290;2023-08-31T04:09:34;97387.66;;;11.25;69.35
43741;BME280;29352;48.708;9.290;2023-08-31T04:11:59;97406.69;;;11.17;69.13
43741;BME280;29352;48.708;9.290;2023-08-31T04:14:26;97401.25;;;11.24;68.95
43741;BME280;29352;48.708;9.290;2023-08-31T04:16:54;97400.78;;;11.15;69.14
43741;BME280;29352;48.708;9.290;2023-08-31T04:19:19;97396.47;;;11.14;69.01
43741;BME280;29352;48.708;9.290;2023-08-31T04:21:45;97400.44;;;11.00;69.74
43741;BME280;29352;48.708;9.290;2023-08-31T04:24:10;97406.34;;;11.02;69.31
43741;BME280;29352;48.708;9.290;2023-08-31T04:26:36;97401.81;;;11.26;69.05
43741;BME280;29352;48.708;9.290;2023-08-31T04:29:03;97405.75;;;11.11;69.15
43741;BME280;29352;48.708;9.290;2023-08-31T04:31:31;97399.75;;;11.40;68.50
43741;BME280;29352;48.708;9.290;2023-08-31T04:33:57;97408.19;;;11.60;67.33
43741;BME280;29352;48.708;9.290;2023-08-31T04:36:22;97412.19;;;11.46;68.11
43741;BME280;29352;48.708;9.290;2023-08-31T04:38:48;97411.47;;;11.62;67.71
43741;BME280;29352;48.708;9.290;2023-08-31T04:41:14;97415.47;;;11.88;67.06
43741;BME280;29352;48.708;9.290;2023-08-31T04:43:40;97417.97;;;11.66;67.62
43741;BME280;29352;48.708;9.290;2023-08-31T04:46:06;97417.63;;;11.51;68.21
43741;BME280;29352;48.708;9.290;2023-08-31T04:48:32;97428.41;;;11.32;67.86
43741;BME280;29352;48.708;9.290;2023-08-31T04:50:58;97418.25;;;11.81;66.92
43741;BME280;29352;48.708;9.290;2023-08-31T04:53:24;97426.75;;;11.78;67.16
43741;BME280;29352;48.708;9.290;2023-08-31T04:55:50;97428.28;;;11.74;68.00
43741;BME280;29352;48.708;9.290;2023-08-31T04:58:15;97432.13;;;11.20;68.96
43741;BME280;29352;48.708;9.290;2023-08-31T05:00:40;97432.94;;;11.79;67.86
43741;BME280;29352;48.708;9.290;2023-08-31T05:03:06;97435.28;;;11.52;68.30
43741;BME280;29352;48.708;9.290;2023-08-31T05:05:32;97433.75;;;11.68;68.14
43741;BME280;29352;48.708;9.290;2023-08-31T05:07:57;97436.06;;;11.64;67.97
43741;BME280;29352;48.708;9.290;2023-08-31T05:10:24;97441.31;;;11.59;68.13
43741;BME280;29352;48.708;9.290;2023-08-31T05:12:49;97439.94;;;12.20;66.88
43741;BME280;29352;48.708;9.290;2023-08-31T05:15:14;97443.88;;;11.54;69.10
43741;BME280;29352;48.708;9.290;2023-08-31T05:17:40;97436.09;;;12.16;68.16
43741;BME280;29352;48.708;9.290;2023-08-31T05:20:06;97443.56;;;12.02;67.93
43741;BME280;29352;48.708;9.290;2023-08-31T05:22:33;97450.34;;;11.81;68.05
43741;BME280;29352;48.708;9.290;2023-08-31T05:24:59;97451.31;;;12.27;67.69
43741;BME280;29352;48.708;9.290;2023-08-31T05:27:26;97461.50;;;11.78;69.21
43741;BME280;29352;48.708;9.290;2023-08-31T05:29:51;97454.50;;;12.01;68.50
43741;BME280;29352;48.708;9.290;2023-08-31T05:32:17;97457.66;;;11.98;68.15
43741;BME280;29352;48.708;9.290;2023-08-31T05:34:42;97457.75;;;12.43;66.86
43741;BME280;29352;48.708;9.290;2023-08-31T05:37:08;97467.78;;;12.36;66.60
43741;BME280;29352;48.708;9.290;2023-08-31T05:39:33;97461.81;;;12.17;67.04
43741;BME280;29352;48.708;9.290;2023-08-31T05:41:59;97457.28;;;12.46;66.70
43741;BME280;29352;48.708;9.290;2023-08-31T05:44:25;97461.84;;;12.34;67.20
43741;BME280;29352;48.708;9.290;2023-08-31T05:46:50;97464.31;;;12.36;67.24
43741;BME280;29352;48.708;9.290;2023-08-31T05:49:16;97468.44;;;12.72;66.32
43741;BME280;29352;48.708;9.290;2023-08-31T05:51:41;97465.72;;;12.26;67.23
43741;BME280;29352;48.708;9.290;2023-08-31T05:54:06;97471.50;;;12.64;66.46
43741;BME280;29352;48.708;9.290;2023-08-31T05:56:38;97476.81;;;12.47;67.14
43741;BME280;29352;48.708;9.290;2023-08-31T05:59:07;97468.22;;;12.73;66.63
43741;BME280;29352;48.708;9.290;2023-08-31T06:01:34;97479.09;;;12.84;65.85
43741;BME280;29352;48.708;9.290;2023-08-31T06:04:01;97485.91;;;12.46;67.66
43741;BME280;29352;48.708;9.290;2023-08-31T06:06:26;97476.00;;;12.75;66.61
43741;BME280;29352;48.708;9.290;2023-08-31T06:08:52;97480.53;;;12.74;66.80
43741;BME280;29352;48.708;9.290;2023-08-31T06:11:18;97487.09;;;12.67;66.64
43741;BME280;29352;48.708;9.290;2023-08-31T06:13:44;97483.63;;;13.29;65.65
43741;BME280;29352;48.708;9.290;2023-08-31T06:16:09;97492.81;;;12.87;66.43
43741;BME280;29352;48.708;9.290;2023-08-31T06:18:35;97486.78;;;13.09;66.83
43741;BME280;29352;48.708;9.290;2023-08-31T06:21:01;97482.16;;;12.75;68.00
43741;BME280;29352;48.708;9.290;2023-08-31T06:23:26;97492.88;;;13.04;67.36
43741;BME280;29352;48.708;9.290;2023-08-31T06:25:52;97498.94;;;12.71;67.54
43741;BME280;29352;48.708;9.290;2023-08-31T06:28:17;97502.53;;;13.05;66.87
43741;BME280;29352;48.708;9.290;2023-08-31T06:30:42;97505.03;;;13.62;65.77
43741;BME280;29352;48.708;9.290;2023-08-31T06:33:14;97507.16;;;13.43;65.77
43741;BME280;29352;48.708;9.290;2023-08-31T06:35:40;97513.44;;;13.49;65.66
43741;BME280;29352;48.708;9.290;2023-08-31T06:38:06;97514.63;;;13.58;65.70
43741;BME280;29352;48.708;9.290;2023-08-31T06:40:32;97506.72;;;12.44;67.08
43741;BME280;29352;48.708;9.290;2023-08-31T06:42:58;97510.66;;;13.44;65.49
43741;BME280;29352;48.708;9.290;2023-08-31T06:45:23;97511.41;;;13.73;64.66
43741;BME280;29352;48.708;9.290;2023-08-31T06:47:49;97509.50;;;13.90;65.19
43741;BME280;29352;48.708;9.290;2023-08-31T06:50:15;97517.41;;;14.02;64.30
43741;BME280;29352;48.708;9.290;2023-08-31T06:52:41;97529.25;;;13.34;65.19
43741;BME280;29352;48.708;9.290;2023-08-31T06:55:07;97530.66;;;14.31;63.22
43741;BME280;29352;48.708;9.290;2023-08-31T06:57:33;97538.22;;;14.34;63.70
43741;BME280;29352;48.708;9.290;2023-08-31T06:59:59;97532.50;;;14.47;63.33
43741;BME280;29352;48.708;9.290;2023-08-31T07:02:26;97542.97;;;14.49;62.78
43741;BME280;29352;48.708;9.290;2023-08-31T07:04:52;97537.22;;;14.84;63.21
43741;BME280;29352;48.708;9.290;2023-08-31T07:07:17;97521.88;;;14.57;61.94
43741;BME280;29352;48.708;9.290;2023-08-31T07:09:46;97527.38;;;15.22;61.59
43741;BME280;29352;48.708;9.290;2023-08-31T07:12:13;97532.72;;;15.17;62.16
43741;BME280;29352;48.708;9.290;2023-08-31T07:14:39;97524.84;;;16.27;59.17
43741;BME280;29352;48.708;9.290;2023-08-31T07:17:04;97532.41;;;17.18;58.56
43741;BME280;29352;48.708;9.290;2023-08-31T07:19:30;97532.06;;;18.17;56.08
43741;BME280;29352;48.708;9.290;2023-08-31T07:21:55;97523.34;;;19.93;53.35
43741;BME280;29352;48.708;9.290;2023-08-31T07:24:22;97529.94;;;20.11;52.23
43741;BME280;29352;48.708;9.290;2023-08-31T07:26:47;97527.28;;;21.81;50.65
43741;BME280;29352;48.708;9.290;2023-08-31T07:29:13;97538.38;;;21.65;50.65
43741;BME280;29352;48.708;9.290;2023-08-31T07:31:39;97542.72;;;20.77;50.20
43741;BME280;29352;48.708;9.290;2023-08-31T07:34:05;97547.38;;;20.28;51.55
43741;BME280;29352;48.708;9.290;2023-08-31T07:36:30;97552.47;;;20.78;50.34
43741;BME280;29352;48.708;9.290;2023-08-31T07:38:56;97551.56;;;20.40;50.86
43741;BME280;29352;48.708;9.290;2023-08-31T07:41:21;97559.66;;;20.45;50.64
43741;BME280;29352;48.708;9.290;2023-08-31T07:43:47;97566.06;;;19.72;51.75
43741;BME280;29352;48.708;9.290;2023-08-31T07:46:14;97560.06;;;18.36;52.21
43741;BME280;29352;48.708;9.290;2023-08-31T07:48:40;97563.34;;;20.01;50.56
43741;BME280;29352;48.708;9.290;2023-08-31T07:51:06;97554.00;;;19.59;49.11
43741;BME280;29352;48.708;9.290;2023-08-31T07:53:32;97553.59;;;20.53;47.84
43741;BME280;29352;48.708;9.290;2023-08-31T07:55:57;97552.78;;;20.52;48.10
43741;BME280;29352;48.708;9.290;2023-08-31T07:58:23;97554.22;;;19.92;48.71
43741;BME280;29352;48.708;9.290;2023-08-31T08:00:52;97560.09;;;20.04;48.75
43741;BME280;29352;48.708;9.290;2023-08-31T08:03:19;97541.63;;;22.55;46.23
43741;BME280;29352;48.708;9.290;2023-08-31T08:05:45;97535.16;;;22.65;46.01
43741;BME280;29352;48.708;9.290;2023-08-31T08:08:11;97542.25;;;23.25;44.77
43741;BME280;29352;48.708;9.290;2023-08-31T08:10:36;97540.44;;;24.59;44.93
43741;BME280;29352;48.708;9.290;2023-08-31T08:13:02;97537.41;;;25.73;43.03
43741;BME280;29352;48.708;9.290;2023-08-31T08:15:28;97529.72;;;24.97;42.63
43741;BME280;29352;48.708;9.290;2023-08-31T08:17:54;97525.47;;;26.63;41.87
43741;BME280;29352;48.708;9.290;2023-08-31T08:20:19;97535.97;;;25.49;41.12
43741;BME280;29352;48.708;9.290;2023-08-31T08:22:45;97531.59;;;25.83;40.37
43741;BME280;29352;48.708;9.290;2023-08-31T08:25:10;97540.16;;;25.38;40.68
43741;BME280;29352;48.708;9.290;2023-08-31T08:27:36;97546.59;;;25.60;39.65
43741;BME280;29352;48.708;9.290;2023-08-31T08:30:02;97552.59;;;24.52;41.30
43741;BME280;29352;48.708;9.290;2023-08-31T08:32:28;97545.84;;;26.06;40.33
43741;BME280;29352;48.708;9.290;2023-08-31T08:34:54;97551.59;;;25.14;40.94
43741;BME280;29352;48.708;9.290;2023-08-31T08:37:19;97550.56;;;24.75;41.35
43741;BME280;29352;48.708;9.290;2023-08-31T08:39:48;97558.31;;;24.42;40.57
43741;BME280;29352;48.708;9.290;2023-08-31T08:42:17;97554.13;;;22.56;41.36
43741;BME280;29352;48.708;9.290;2023-08-31T08:44:44;97549.63;;;23.02;40.70
43741;BME280;29352;48.708;9.290;2023-08-31T08:47:11;97556.16;;;24.22;40.37
43741;BME280;29352;48.708;9.290;2023-08-31T08:49:38;97561.72;;;21.34;42.85
43741;BME280;29352;48.708;9.290;2023-08-31T08:52:04;97556.84;;;22.92;41.69
43741;BME280;29352;48.708;9.290;2023-08-31T08:54:30;97565.56;;;22.26;41.19
43741;BME280;29352;48.708;9.290;2023-08-31T08:56:57;97561.63;;;21.90;41.63
43741;BME280;29352;48.708;9.290;2023-08-31T08:59:24;97560.13;;;21.98;42.31
43741;BME280;29352;48.708;9.290;2023-08-31T09:01:49;97561.06;;;20.61;43.26
43741;BME280;29352;48.708;9.290;2023-08-31T09:04:15;97570.56;;;21.20;43.49
43741;BME280;29352;48.708;9.290;2023-08-31T09:06:41;97570.00;;;19.84;45.07
43741;BME280;29352;48.708;9.290;2023-08-31T09:09:10;97573.66;;;19.35;44.88
43741;BME280;29352;48.708;9.290;2023-08-31T09:11:35;97578.25;;;19.35;44.68
43741;BME280;29352;48.708;9.290;2023-08-31T09:16:47;97598.25;;;18.84;45.80
43741;BME280;29352;48.708;9.290;2023-08-31T09:19:21;97597.94;;;19.01;46.42
43741;BME280;29352;48.708;9.290;2023-08-31T09:21:55;97599.31;;;17.72;47.20
43741;BME280;29352;48.708;9.290;2023-08-31T09:24:21;97592.03;;;17.93;46.81
43741;BME280;29352;48.708;9.290;2023-08-31T09:26:52;97602.81;;;17.27;46.96
43741;BME280;29352;48.708;9.290;2023-08-31T09:29:19;97593.31;;;18.32;46.52
43741;BME280;29352;48.708;9.290;2023-08-31T09:31:45;97591.59;;;19.60;45.31
43741;BME280;29352;48.708;9.290;2023-08-31T09:34:12;97597.09;;;19.84;44.83
43741;BME280;29352;48.708;9.290;2023-08-31T09:36:39;97585.31;;;18.81;45.05
43741;BME280;29352;48.708;9.290;2023-08-31T09:39:08;97600.59;;;18.36;45.76
43741;BME280;29352;48.708;9.290;2023-08-31T09:41:35;97591.63;;;18.61;45.32
43741;BME280;29352;48.708;9.290;2023-08-31T09:44:18;97596.28;;;18.35;46.61
43741;BME280;29352;48.708;9.290;2023-08-31T09:46:45;97579.84;;;19.75;43.94
43741;BME280;29352;48.708;9.290;2023-08-31T09:49:14;97579.44;;;20.45;41.82
43741;BME280;29352;48.708;9.290;2023-08-31T09:51:45;97578.75;;;20.35;42.92
43741;BME280;29352;48.708;9.290;2023-08-31T09:54:14;97588.50;;;19.38;43.30
43741;BME280;29352;48.708;9.290;2023-08-31T09:56:43;97596.84;;;19.81;43.01
43741;BME280;29352;48.708;9.290;2023-08-31T09:59:12;97599.13;;;19.98;42.84
43741;BME280;29352;48.708;9.290;2023-08-31T10:01:44;97601.38;;;20.44;42.44
43741;BME280;29352;48.708;9.290;2023-08-31T10:04:11;97610.72;;;19.74;42.80
43741;BME280;29352;48.708;9.290;2023-08-31T10:06:42;97594.16;;;19.42;42.98
43741;BME280;29352;48.708;9.290;2023-08-31T10:09:09;97599.84;;;18.10;43.73
43741;BME280;29352;48.708;9.290;2023-08-31T10:11:37;97605.09;;;18.66;42.74
43741;BME280;29352;48.708;9.290;2023-08-31T10:14:04;97610.59;;;18.26;43.14
43741;BME280;29352;48.708;9.290;2023-08-31T10:16:31;97602.88;;;19.33;42.31
43741;BME280;29352;48.708;9.290;2023-08-31T10:18:58;97596.53;;;19.88;41.63
43741;BME280;29352;48.708;9.290;2023-08-31T10:21:24;97605.56;;;18.89;41.53
43741;BME280;29352;48.708;9.290;2023-08-31T10:23:50;97600.84;;;19.15;41.20
43741;BME280;29352;48.708;9.290;2023-08-31T10:26:30;97597.13;;;18.96;42.03
43741;BME280;29352;48.708;9.290;2023-08-31T10:28:58;97600.13;;;19.38;41.66
43741;BME280;29352;48.708;9.290;2023-08-31T10:31:29;97602.03;;;19.38;41.84
43741;BME280;29352;48.708;9.290;2023-08-31T10:36:37;97601.00;;;21.55;40.65
43741;BME280;29352;48.708;9.290;2023-08-31T10:39:16;97601.00;;;20.79;40.21
43741;BME280;29352;48.708;9.290;2023-08-31T10:41:54;97609.22;;;20.16;41.64
43741;BME280;29352;48.708;9.290;2023-08-31T10:44:24;97604.94;;;19.86;41.31
43741;BME280;29352;48.708;9.290;2023-08-31T10:46:51;97604.69;;;19.43;41.60
43741;BME280;29352;48.708;9.290;2023-08-31T10:49:19;97607.56;;;19.57;42.42
43741;BME280;29352;48.708;9.290;2023-08-31T10:51:49;97613.53;;;19.54;42.78
43741;BME280;29352;48.708;9.290;2023-08-31T10:54:31;97599.25;;;20.12;40.73
43741;BME280;29352;48.708;9.290;2023-08-31T10:57:03;97608.38;;;19.18;41.83
43741;BME280;29352;48.708;9.290;2023-08-31T11:02:34;97596.31;;;20.08;41.51
43741;BME280;29352;48.708;9.290;2023-08-31T11:05:16;97605.00;;;19.36;42.39
43741;BME280;29352;48.708;9.290;2023-08-31T11:07:44;97602.78;;;19.44;41.19
43741;BME280;29352;48.708;9.290;2023-08-31T11:12:41;97612.22;;;19.51;42.04
43741;BME280;29352;48.708;9.290;2023-08-31T11:15:11;97613.91;;;19.81;42.17
43741;BME280;29352;48.708;9.290;2023-08-31T11:17:40;97616.75;;;19.22;42.09
43741;BME280;29352;48.708;9.290;2023-08-31T11:20:07;97612.56;;;19.39;41.67
43741;BME280;29352;48.708;9.290;2023-08-31T11:22:34;97613.47;;;18.75;43.20
43741;BME280;29352;48.708;9.290;2023-08-31T11:25:04;97601.69;;;19.84;41.56
43741;BME280;29352;48.708;9.290;2023-08-31T11:27:30;97601.72;;;19.79;42.04
43741;BME280;29352;48.708;9.290;2023-08-31T11:29:56;97602.16;;;19.57;42.32
43741;BME280;29352;48.708;9.290;2023-08-31T11:32:24;97604.19;;;19.75;42.39
43741;BME280;29352;48.708;9.290;2023-08-31T11:34:50;97594.94;;;20.11;41.48
43741;BME280;29352;48.708;9.290;2023-08-31T11:37:16;97600.88;;;19.83;42.21
43741;BME280;29352;48.708;9.290;2023-08-31T11:39:51;97597.13;;;19.40;43.75
43741;BME280;29352;48.708;9.290;2023-08-31T11:42:21;97592.50;;;20.62;41.91
43741;BME280;29352;48.708;9.290;2023-08-31T11:44:49;97584.28;;;20.48;41.49
43741;BME280;29352;48.708;9.290;2023-08-31T11:47:18;97593.31;;;20.63;42.92
43741;BME280;29352;48.708;9.290;2023-08-31T11:49:46;97588.91;;;20.91;41.26
43741;BME280;29352;48.708;9.290;2023-08-31T11:52:13;97594.81;;;20.50;43.26
43741;BME280;29352;48.708;9.290;2023-08-31T11:54:42;97587.31;;;20.13;43.87
43741;BME280;29352;48.708;9.290;2023-08-31T11:57:09;97587.22;;;20.71;42.59
43741;BME280;29352;48.708;9.290;2023-08-31T11:59:37;97582.84;;;21.37;42.83
43741;BME280;29352;48.708;9.290;2023-08-31T12:02:07;97571.44;;;22.47;39.72
43741;BME280;29352;48.708;9.290;2023-08-31T12:04:42;97571.72;;;21.85;38.72
43741;BME280;29352;48.708;9.290;2023-08-31T12:07:16;97570.84;;;22.50;39.81
43741;BME280;29352;48.708;9.290;2023-08-31T12:09:46;97573.13;;;22.29;39.65
43741;BME280;29352;48.708;9.290;2023-08-31T12:12:20;97573.00;;;22.06;39.76
43741;BME280;29352;48.708;9.290;2023-08-31T12:14:47;97575.88;;;22.42;38.93
43741;BME280;29352;48.708;9.290;2023-08-31T12:17:12;97576.13;;;22.27;39.24
43741;BME280;29352;48.708;9.290;2023-08-31T12:19:39;97578.84;;;21.67;39.24
43741;BME280;29352;48.708;9.290;2023-08-31T12:22:05;97583.34;;;21.71;40.04
43741;BME280;29352;48.708;9.290;2023-08-31T12:24:38;97576.91;;;20.97;39.12
43741;BME280;29352;48.708;9.290;2023-08-31T12:27:06;97572.81;;;22.30;38.76
43741;BME280;29352;48.708;9.290;2023-08-31T12:29:32;97566.75;;;21.59;39.51
43741;BME280;29352;48.708;9.290;2023-08-31T12:31:57;97574.09;;;20.83;40.76
43741;BME280;29352;48.708;9.290;2023-08-31T12:34:23;97569.13;;;21.09;40.50
43741;BME280;29352;48.708;9.290;2023-08-31T12:36:49;97568.50;;;21.83;39.82
43741;BME280;29352;48.708;9.290;2023-08-31T12:39:14;97566.94;;;20.68;39.79
43741;BME280;29352;48.708;9.290;2023-08-31T12:41:40;97564.06;;;21.21;39.96
43741;BME280;29352;48.708;9.290;2023-08-31T12:44:07;97565.13;;;20.40;41.27
43741;BME280;29352;48.708;9.290;2023-08-31T12:46:33;97566.97;;;19.62;42.40
43741;BME280;29352;48.708;9.290;2023-08-31T12:49:00;97563.50;;;19.17;41.68
43741;BME280;29352;48.708;9.290;2023-08-31T12:51:27;97556.88;;;20.26;40.68
43741;BME280;29352;48.708;9.290;2023-08-31T12:53:53;97555.97;;;20.06;41.72
43741;BME280;29352;48.708;9.290;2023-08-31T12:56:19;97562.94;;;19.20;42.42
43741;BME280;29352;48.708;9.290;2023-08-31T12:58:49;97566.22;;;20.09;41.62
43741;BME280;29352;48.708;9.290;2023-08-31T13:01:15;97552.34;;;20.21;40.74
43741;BME280;29352;48.708;9.290;2023-08-31T13:03:40;97556.28;;;20.53;41.80
43741;BME280;29352;48.708;9.290;2023-08-31T13:06:06;97566.78;;;20.84;41.00
43741;BME280;29352;48.708;9.290;2023-08-31T13:08:31;97568.13;;;20.38;41.79
43741;BME280;29352;48.708;9.290;2023-08-31T13:10:57;97563.47;;;19.91;41.56
43741;BME280;29352;48.708;9.290;2023-08-31T13:13:22;97563.59;;;20.04;41.89